Lane, California
Current Conditions -  °F | °C
As of 5:56 AM on Wednesday 22 Oct 2014 (Local Time) from KWJF Reporting Station
Clear Clear  
Wind Chill: 43°   Ceiling: Unl
Heat Index: 47°   Visibility: 10mi
Dew Point: 35°   Wind: 8mph
Humidity: 63%   Direction: 280°W
Pressure: 29.99"   Gusts: NA
Location:  34.7349°N, 118.15°W
Report Text: KWJF 221256Z 28007KT 10SM CLR 08/02 A2999 RMK AO2 SLP153 T00830017
Loading
Personal Weather Stations






























Interactive Weather Map
Tropical Storm Tracking
New forecast layout! Learn more

10-Day Weather Forecast

Advertisements
Track Severe Weather on mobile